Terminal Aerodrome Forecast
Issued by NWS

Home | Current Version | Previous Version | Graphics & Text | Print | Product List | Glossary On
Versions: 1 2 3 4 5 6 7 8 9 10 11 12 13 14 15 16 17 18 19 20 21 22 23 24 25 26 27 28 29
403
FTUS43 KLOT 250532
TAFMDW
TAF
KMDW 250532Z 2506/2606 30011KT P6SM VCSH BKN012 OVC020
      TEMPO 2506/2508 2SM -RASN BR BKN012
     FM250800 29015G23KT 2SM -SN BR OVC015
     FM251200 29016G24KT 4SM -SN BR OVC015
     FM251600 30018G26KT P6SM OVC020
     FM252300 29016G24KT P6SM BKN035
     FM260200 28008KT P6SM SCT100=

USA.gov is the U.S. government's official web portal to all federal, state and local government web resources and services.